sensor_id;sensor_type;location;lat;lon;timestamp;P1;durP1;ratioP1;P2;durP2;ratioP2
75311;SDS011;63906;55.686;37.532;2023-02-12T00:04:36;4.40;;;2.95;;
75311;SDS011;63906;55.686;37.532;2023-02-12T00:09:37;3.53;;;1.77;;
75311;SDS011;63906;55.686;37.532;2023-02-12T00:14:38;3.70;;;1.77;;
75311;SDS011;63906;55.686;37.532;2023-02-12T00:19:39;1.07;;;0.80;;
75311;SDS011;63906;55.686;37.532;2023-02-12T00:24:39;3.63;;;1.90;;
75311;SDS011;63906;55.686;37.532;2023-02-12T00:29:40;3.33;;;2.23;;
75311;SDS011;63906;55.686;37.532;2023-02-12T00:34:40;3.28;;;1.50;;
75311;SDS011;63906;55.686;37.532;2023-02-12T00:39:41;4.15;;;1.73;;
75311;SDS011;63906;55.686;37.532;2023-02-12T00:44:42;1.48;;;0.98;;
75311;SDS011;63906;55.686;37.532;2023-02-12T00:49:42;2.95;;;1.98;;
75311;SDS011;63906;55.686;37.532;2023-02-12T00:54:43;5.53;;;3.03;;
75311;SDS011;63906;55.686;37.532;2023-02-12T00:59:43;4.35;;;1.95;;
75311;SDS011;63906;55.686;37.532;2023-02-12T01:04:44;2.77;;;1.77;;
75311;SDS011;63906;55.686;37.532;2023-02-12T01:09:44;6.82;;;2.88;;
75311;SDS011;63906;55.686;37.532;2023-02-12T01:14:45;3.53;;;2.30;;
75311;SDS011;63906;55.686;37.532;2023-02-12T01:19:45;4.73;;;2.20;;
75311;SDS011;63906;55.686;37.532;2023-02-12T01:24:46;5.65;;;2.53;;
75311;SDS011;63906;55.686;37.532;2023-02-12T01:29:46;2.73;;;1.70;;
75311;SDS011;63906;55.686;37.532;2023-02-12T01:34:47;5.93;;;3.05;;
75311;SDS011;63906;55.686;37.532;2023-02-12T01:39:48;3.15;;;1.23;;
75311;SDS011;63906;55.686;37.532;2023-02-12T01:50:14;4.60;;;2.13;;
75311;SDS011;63906;55.686;37.532;2023-02-12T01:55:19;6.38;;;1.17;;
75311;SDS011;63906;55.686;37.532;2023-02-12T02:00:21;3.33;;;2.05;;
75311;SDS011;63906;55.686;37.532;2023-02-12T02:10:51;2.85;;;1.73;;
75311;SDS011;63906;55.686;37.532;2023-02-12T02:15:53;3.95;;;1.65;;
75311;SDS011;63906;55.686;37.532;2023-02-12T02:26:51;3.22;;;1.50;;
75311;SDS011;63906;55.686;37.532;2023-02-12T02:37:14;2.45;;;1.08;;
75311;SDS011;63906;55.686;37.532;2023-02-12T02:42:22;4.32;;;1.48;;
75311;SDS011;63906;55.686;37.532;2023-02-12T02:57:59;3.30;;;1.65;;
75311;SDS011;63906;55.686;37.532;2023-02-12T03:03:09;5.88;;;2.28;;
75311;SDS011;63906;55.686;37.532;2023-02-12T03:08:17;2.00;;;1.05;;
75311;SDS011;63906;55.686;37.532;2023-02-12T03:13:45;4.95;;;2.60;;
75311;SDS011;63906;55.686;37.532;2023-02-12T03:19:15;4.53;;;2.40;;
75311;SDS011;63906;55.686;37.532;2023-02-12T03:29:30;6.43;;;2.70;;
75311;SDS011;63906;55.686;37.532;2023-02-12T03:45:12;2.13;;;0.90;;
75311;SDS011;63906;55.686;37.532;2023-02-12T03:50:39;4.07;;;1.88;;
75311;SDS011;63906;55.686;37.532;2023-02-12T03:55:46;3.47;;;1.38;;
75311;SDS011;63906;55.686;37.532;2023-02-12T04:00:51;3.28;;;1.60;;
75311;SDS011;63906;55.686;37.532;2023-02-12T04:05:52;3.60;;;1.73;;
75311;SDS011;63906;55.686;37.532;2023-02-12T04:16:24;4.88;;;2.15;;
75311;SDS011;63906;55.686;37.532;2023-02-12T04:26:56;3.15;;;1.85;;
75311;SDS011;63906;55.686;37.532;2023-02-12T04:42:22;1.60;;;0.85;;
75311;SDS011;63906;55.686;37.532;2023-02-12T04:47:22;2.92;;;1.63;;
75311;SDS011;63906;55.686;37.532;2023-02-12T04:52:23;3.38;;;1.20;;
75311;SDS011;63906;55.686;37.532;2023-02-12T04:57:23;1.90;;;0.87;;
75311;SDS011;63906;55.686;37.532;2023-02-12T05:02:24;3.17;;;1.38;;
75311;SDS011;63906;55.686;37.532;2023-02-12T05:07:25;2.20;;;0.93;;
75311;SDS011;63906;55.686;37.532;2023-02-12T05:12:25;6.53;;;1.58;;
75311;SDS011;63906;55.686;37.532;2023-02-12T05:17:26;3.53;;;0.93;;
75311;SDS011;63906;55.686;37.532;2023-02-12T05:22:26;1.17;;;0.50;;
75311;SDS011;63906;55.686;37.532;2023-02-12T05:27:27;1.85;;;0.70;;
75311;SDS011;63906;55.686;37.532;2023-02-12T05:32:27;3.70;;;0.85;;
75311;SDS011;63906;55.686;37.532;2023-02-12T05:37:28;1.80;;;0.47;;
75311;SDS011;63906;55.686;37.532;2023-02-12T05:42:30;1.30;;;0.65;;
75311;SDS011;63906;55.686;37.532;2023-02-12T05:47:31;1.05;;;0.60;;
75311;SDS011;63906;55.686;37.532;2023-02-12T05:52:32;1.30;;;0.63;;
75311;SDS011;63906;55.686;37.532;2023-02-12T05:57:33;1.90;;;0.57;;
75311;SDS011;63906;55.686;37.532;2023-02-12T06:02:33;1.15;;;1.15;;
75311;SDS011;63906;55.686;37.532;2023-02-12T06:07:34;1.92;;;0.82;;
75311;SDS011;63906;55.686;37.532;2023-02-12T06:12:34;0.55;;;0.20;;
75311;SDS011;63906;55.686;37.532;2023-02-12T06:17:35;1.57;;;0.60;;
75311;SDS011;63906;55.686;37.532;2023-02-12T06:22:35;1.38;;;0.60;;
75311;SDS011;63906;55.686;37.532;2023-02-12T06:27:37;3.13;;;0.70;;
75311;SDS011;63906;55.686;37.532;2023-02-12T06:32:37;0.93;;;0.53;;
75311;SDS011;63906;55.686;37.532;2023-02-12T06:37:38;0.57;;;0.37;;
75311;SDS011;63906;55.686;37.532;2023-02-12T06:42:38;2.97;;;0.70;;
75311;SDS011;63906;55.686;37.532;2023-02-12T06:47:42;1.60;;;0.40;;
75311;SDS011;63906;55.686;37.532;2023-02-12T06:57:43;0.70;;;0.37;;
75311;SDS011;63906;55.686;37.532;2023-02-12T07:02:43;1.00;;;0.45;;
75311;SDS011;63906;55.686;37.532;2023-02-12T07:07:44;0.37;;;0.30;;
75311;SDS011;63906;55.686;37.532;2023-02-12T07:12:44;0.73;;;0.40;;
75311;SDS011;63906;55.686;37.532;2023-02-12T07:17:45;1.02;;;0.52;;
75311;SDS011;63906;55.686;37.532;2023-02-12T07:22:46;0.63;;;0.40;;
75311;SDS011;63906;55.686;37.532;2023-02-12T07:27:46;0.88;;;0.73;;
75311;SDS011;63906;55.686;37.532;2023-02-12T07:32:47;2.30;;;0.50;;
75311;SDS011;63906;55.686;37.532;2023-02-12T07:37:47;1.20;;;0.40;;
75311;SDS011;63906;55.686;37.532;2023-02-12T07:42:48;1.67;;;0.80;;
75311;SDS011;63906;55.686;37.532;2023-02-12T07:47:54;0.65;;;0.30;;
75311;SDS011;63906;55.686;37.532;2023-02-12T07:52:54;0.73;;;0.43;;
75311;SDS011;63906;55.686;37.532;2023-02-12T07:57:55;1.50;;;0.50;;
75311;SDS011;63906;55.686;37.532;2023-02-12T08:02:55;1.02;;;0.65;;
75311;SDS011;63906;55.686;37.532;2023-02-12T08:07:56;1.58;;;0.43;;
75311;SDS011;63906;55.686;37.532;2023-02-12T08:12:56;1.17;;;0.50;;
75311;SDS011;63906;55.686;37.532;2023-02-12T08:17:57;1.63;;;0.50;;
75311;SDS011;63906;55.686;37.532;2023-02-12T08:22:58;1.17;;;0.47;;
75311;SDS011;63906;55.686;37.532;2023-02-12T08:27:59;2.43;;;0.57;;
75311;SDS011;63906;55.686;37.532;2023-02-12T08:32:59;2.23;;;0.50;;
75311;SDS011;63906;55.686;37.532;2023-02-12T08:38:00;1.23;;;0.40;;
75311;SDS011;63906;55.686;37.532;2023-02-12T08:43:00;0.52;;;0.45;;
75311;SDS011;63906;55.686;37.532;2023-02-12T08:48:01;1.33;;;0.40;;
75311;SDS011;63906;55.686;37.532;2023-02-12T08:53:01;1.00;;;0.47;;
75311;SDS011;63906;55.686;37.532;2023-02-12T08:58:02;1.30;;;0.40;;
75311;SDS011;63906;55.686;37.532;2023-02-12T09:03:02;1.02;;;0.50;;
75311;SDS011;63906;55.686;37.532;2023-02-12T09:08:03;1.50;;;0.37;;
75311;SDS011;63906;55.686;37.532;2023-02-12T09:13:03;1.10;;;0.35;;
75311;SDS011;63906;55.686;37.532;2023-02-12T09:18:05;6.03;;;0.55;;
75311;SDS011;63906;55.686;37.532;2023-02-12T09:23:07;2.67;;;0.57;;
75311;SDS011;63906;55.686;37.532;2023-02-12T09:28:08;0.25;;;0.20;;
75311;SDS011;63906;55.686;37.532;2023-02-12T09:33:10;0.38;;;0.28;;
75311;SDS011;63906;55.686;37.532;2023-02-12T09:38:11;0.22;;;0.13;;
75311;SDS011;63906;55.686;37.532;2023-02-12T09:53:46;0.40;;;0.30;;
75311;SDS011;63906;55.686;37.532;2023-02-12T10:03:55;1.75;;;0.30;;
75311;SDS011;63906;55.686;37.532;2023-02-12T10:19:46;0.20;;;0.10;;
75311;SDS011;63906;55.686;37.532;2023-02-12T10:25:29;0.20;;;0.08;;
75311;SDS011;63906;55.686;37.532;2023-02-12T10:30:43;0.10;;;0.10;;
75311;SDS011;63906;55.686;37.532;2023-02-12T10:35:52;0.08;;;0.08;;
75311;SDS011;63906;55.686;37.532;2023-02-12T10:40:58;4.10;;;0.38;;
75311;SDS011;63906;55.686;37.532;2023-02-12T10:46:00;0.50;;;0.40;;
75311;SDS011;63906;55.686;37.532;2023-02-12T11:01:18;1.67;;;0.70;;
75311;SDS011;63906;55.686;37.532;2023-02-12T11:06:26;0.80;;;0.43;;
75311;SDS011;63906;55.686;37.532;2023-02-12T11:11:29;0.35;;;0.13;;
75311;SDS011;63906;55.686;37.532;2023-02-12T11:16:39;0.40;;;0.17;;
75311;SDS011;63906;55.686;37.532;2023-02-12T11:21:50;1.20;;;0.25;;
75311;SDS011;63906;55.686;37.532;2023-02-12T11:26:59;3.13;;;0.40;;
75311;SDS011;63906;55.686;37.532;2023-02-12T11:32:14;3.25;;;0.60;;
75311;SDS011;63906;55.686;37.532;2023-02-12T11:37:18;0.50;;;0.30;;
75311;SDS011;63906;55.686;37.532;2023-02-12T11:42:23;0.30;;;0.20;;
75311;SDS011;63906;55.686;37.532;2023-02-12T11:47:26;0.98;;;0.50;;
75311;SDS011;63906;55.686;37.532;2023-02-12T11:52:33;1.45;;;0.32;;
75311;SDS011;63906;55.686;37.532;2023-02-12T11:57:38;0.73;;;0.57;;
75311;SDS011;63906;55.686;37.532;2023-02-12T12:08:24;1.42;;;0.60;;
75311;SDS011;63906;55.686;37.532;2023-02-12T12:13:42;3.10;;;0.60;;
75311;SDS011;63906;55.686;37.532;2023-02-12T12:18:53;2.05;;;0.68;;
75311;SDS011;63906;55.686;37.532;2023-02-12T12:29:54;0.10;;;0.10;;
75311;SDS011;63906;55.686;37.532;2023-02-12T12:35:07;1.13;;;0.57;;
75311;SDS011;63906;55.686;37.532;2023-02-12T12:40:15;1.08;;;0.57;;
75311;SDS011;63906;55.686;37.532;2023-02-12T12:56:38;0.15;;;0.10;;
75311;SDS011;63906;55.686;37.532;2023-02-12T13:27:56;0.40;;;0.40;;
75311;SDS011;63906;55.686;37.532;2023-02-12T13:33:09;1.55;;;0.35;;
75311;SDS011;63906;55.686;37.532;2023-02-12T13:38:26;1.42;;;0.30;;
75311;SDS011;63906;55.686;37.532;2023-02-12T14:04:35;3.67;;;0.38;;
75311;SDS011;63906;55.686;37.532;2023-02-12T14:09:45;1.63;;;0.60;;
75311;SDS011;63906;55.686;37.532;2023-02-12T14:14:53;0.52;;;0.45;;
75311;SDS011;63906;55.686;37.532;2023-02-12T14:20:23;2.17;;;0.63;;
75311;SDS011;63906;55.686;37.532;2023-02-12T14:25:31;0.35;;;0.13;;
75311;SDS011;63906;55.686;37.532;2023-02-12T14:30:33;1.30;;;0.45;;
75311;SDS011;63906;55.686;37.532;2023-02-12T14:35:42;1.60;;;0.45;;
75311;SDS011;63906;55.686;37.532;2023-02-12T14:40:49;0.55;;;0.20;;
75311;SDS011;63906;55.686;37.532;2023-02-12T14:45:51;0.57;;;0.35;;
75311;SDS011;63906;55.686;37.532;2023-02-12T14:50:53;0.13;;;0.10;;
75311;SDS011;63906;55.686;37.532;2023-02-12T14:55:54;0.35;;;0.35;;
75311;SDS011;63906;55.686;37.532;2023-02-12T15:00:56;0.20;;;0.10;;
75311;SDS011;63906;55.686;37.532;2023-02-12T15:06:06;1.85;;;0.30;;
75311;SDS011;63906;55.686;37.532;2023-02-12T15:11:26;1.00;;;0.30;;
75311;SDS011;63906;55.686;37.532;2023-02-12T15:27:26;0.80;;;0.60;;
75311;SDS011;63906;55.686;37.532;2023-02-12T15:32:27;0.30;;;0.20;;
75311;SDS011;63906;55.686;37.532;2023-02-12T15:37:29;1.27;;;0.55;;
75311;SDS011;63906;55.686;37.532;2023-02-12T15:42:32;2.00;;;0.50;;
75311;SDS011;63906;55.686;37.532;2023-02-12T15:47:34;0.60;;;0.60;;
75311;SDS011;63906;55.686;37.532;2023-02-12T15:52:36;0.75;;;0.30;;
75311;SDS011;63906;55.686;37.532;2023-02-12T15:57:39;0.30;;;0.30;;
75311;SDS011;63906;55.686;37.532;2023-02-12T16:02:39;1.73;;;0.38;;
75311;SDS011;63906;55.686;37.532;2023-02-12T16:07:40;2.10;;;0.73;;
75311;SDS011;63906;55.686;37.532;2023-02-12T16:12:41;0.75;;;0.75;;
75311;SDS011;63906;55.686;37.532;2023-02-12T16:17:45;1.17;;;0.40;;
75311;SDS011;63906;55.686;37.532;2023-02-12T16:22:47;0.00;;;0.00;;
75311;SDS011;63906;55.686;37.532;2023-02-12T16:27:59;4.97;;;0.75;;
75311;SDS011;63906;55.686;37.532;2023-02-12T16:38:40;1.17;;;0.60;;
75311;SDS011;63906;55.686;37.532;2023-02-12T16:43:49;1.90;;;0.40;;
75311;SDS011;63906;55.686;37.532;2023-02-12T16:48:59;2.88;;;0.80;;
75311;SDS011;63906;55.686;37.532;2023-02-12T16:54:02;1.10;;;0.55;;
75311;SDS011;63906;55.686;37.532;2023-02-12T16:59:03;1.05;;;0.50;;
75311;SDS011;63906;55.686;37.532;2023-02-12T17:04:07;0.30;;;0.20;;
75311;SDS011;63906;55.686;37.532;2023-02-12T17:09:15;1.85;;;0.50;;
75311;SDS011;63906;55.686;37.532;2023-02-12T17:14:16;0.47;;;0.37;;
75311;SDS011;63906;55.686;37.532;2023-02-12T17:19:18;0.65;;;0.30;;
75311;SDS011;63906;55.686;37.532;2023-02-12T17:24:29;0.37;;;0.37;;
75311;SDS011;63906;55.686;37.532;2023-02-12T17:29:33;0.73;;;0.38;;
75311;SDS011;63906;55.686;37.532;2023-02-12T17:34:33;1.17;;;0.70;;
75311;SDS011;63906;55.686;37.532;2023-02-12T17:39:37;0.98;;;0.70;;
75311;SDS011;63906;55.686;37.532;2023-02-12T17:44:38;1.98;;;1.02;;
75311;SDS011;63906;55.686;37.532;2023-02-12T17:49:39;1.08;;;0.57;;
75311;SDS011;63906;55.686;37.532;2023-02-12T17:54:42;0.20;;;0.15;;
75311;SDS011;63906;55.686;37.532;2023-02-12T17:59:44;1.67;;;1.10;;
75311;SDS011;63906;55.686;37.532;2023-02-12T18:04:45;2.05;;;0.85;;
75311;SDS011;63906;55.686;37.532;2023-02-12T18:09:45;3.33;;;0.82;;
75311;SDS011;63906;55.686;37.532;2023-02-12T18:14:46;4.03;;;1.58;;
75311;SDS011;63906;55.686;37.532;2023-02-12T18:19:47;2.27;;;1.30;;
75311;SDS011;63906;55.686;37.532;2023-02-12T18:24:48;0.52;;;0.40;;
75311;SDS011;63906;55.686;37.532;2023-02-12T18:29:48;1.10;;;0.60;;
75311;SDS011;63906;55.686;37.532;2023-02-12T18:34:49;2.43;;;0.70;;
75311;SDS011;63906;55.686;37.532;2023-02-12T18:39:49;5.25;;;0.60;;
75311;SDS011;63906;55.686;37.532;2023-02-12T18:44:50;2.10;;;0.82;;
75311;SDS011;63906;55.686;37.532;2023-02-12T18:49:50;0.85;;;0.20;;
75311;SDS011;63906;55.686;37.532;2023-02-12T18:54:51;1.25;;;0.57;;
75311;SDS011;63906;55.686;37.532;2023-02-12T18:59:52;0.88;;;0.77;;
75311;SDS011;63906;55.686;37.532;2023-02-12T19:04:52;0.73;;;0.65;;
75311;SDS011;63906;55.686;37.532;2023-02-12T19:09:53;0.90;;;0.40;;
75311;SDS011;63906;55.686;37.532;2023-02-12T19:14:53;0.70;;;0.40;;
75311;SDS011;63906;55.686;37.532;2023-02-12T19:19:54;0.20;;;0.20;;
75311;SDS011;63906;55.686;37.532;2023-02-12T19:24:54;0.68;;;0.15;;
75311;SDS011;63906;55.686;37.532;2023-02-12T19:29:55;1.17;;;0.47;;
75311;SDS011;63906;55.686;37.532;2023-02-12T19:34:56;0.35;;;0.32;;
75311;SDS011;63906;55.686;37.532;2023-02-12T19:39:56;2.10;;;0.70;;
75311;SDS011;63906;55.686;37.532;2023-02-12T19:44:57;2.03;;;0.55;;
75311;SDS011;63906;55.686;37.532;2023-02-12T19:49:58;3.53;;;1.23;;
75311;SDS011;63906;55.686;37.532;2023-02-12T19:54:58;2.50;;;1.25;;
75311;SDS011;63906;55.686;37.532;2023-02-12T19:59:59;0.25;;;0.25;;
75311;SDS011;63906;55.686;37.532;2023-02-12T20:04:59;1.53;;;0.57;;
75311;SDS011;63906;55.686;37.532;2023-02-12T20:10:00;2.00;;;1.20;;
75311;SDS011;63906;55.686;37.532;2023-02-12T20:15:00;2.70;;;1.00;;
75311;SDS011;63906;55.686;37.532;2023-02-12T20:20:02;3.15;;;0.50;;
75311;SDS011;63906;55.686;37.532;2023-02-12T20:25:04;1.55;;;0.70;;
75311;SDS011;63906;55.686;37.532;2023-02-12T20:30:05;3.45;;;1.33;;
75311;SDS011;63906;55.686;37.532;2023-02-12T20:35:06;2.28;;;0.70;;
75311;SDS011;63906;55.686;37.532;2023-02-12T20:40:07;3.90;;;1.15;;
75311;SDS011;63906;55.686;37.532;2023-02-12T20:45:08;1.48;;;0.73;;
75311;SDS011;63906;55.686;37.532;2023-02-12T20:50:08;1.23;;;0.73;;
75311;SDS011;63906;55.686;37.532;2023-02-12T20:55:09;0.63;;;0.47;;
75311;SDS011;63906;55.686;37.532;2023-02-12T21:00:10;1.23;;;0.50;;
75311;SDS011;63906;55.686;37.532;2023-02-12T21:05:11;0.45;;;0.30;;
75311;SDS011;63906;55.686;37.532;2023-02-12T21:10:11;2.72;;;0.90;;
75311;SDS011;63906;55.686;37.532;2023-02-12T21:15:12;0.10;;;0.10;;
75311;SDS011;63906;55.686;37.532;2023-02-12T21:20:12;0.70;;;0.70;;
75311;SDS011;63906;55.686;37.532;2023-02-12T21:25:13;0.22;;;0.10;;
75311;SDS011;63906;55.686;37.532;2023-02-12T21:30:17;1.40;;;0.77;;
75311;SDS011;63906;55.686;37.532;2023-02-12T21:35:17;0.68;;;0.20;;
75311;SDS011;63906;55.686;37.532;2023-02-12T21:40:18;0.25;;;0.20;;
75311;SDS011;63906;55.686;37.532;2023-02-12T21:50:22;0.67;;;0.40;;
75311;SDS011;63906;55.686;37.532;2023-02-12T21:55:22;0.80;;;0.47;;
75311;SDS011;63906;55.686;37.532;2023-02-12T22:00:23;0.40;;;0.40;;
75311;SDS011;63906;55.686;37.532;2023-02-12T22:05:23;1.02;;;0.85;;
75311;SDS011;63906;55.686;37.532;2023-02-12T22:10:24;1.10;;;0.73;;
75311;SDS011;63906;55.686;37.532;2023-02-12T22:15:25;4.20;;;1.30;;
75311;SDS011;63906;55.686;37.532;2023-02-12T22:20:26;0.17;;;0.10;;
75311;SDS011;63906;55.686;37.532;2023-02-12T22:25:26;1.13;;;0.47;;
75311;SDS011;63906;55.686;37.532;2023-02-12T22:30:27;1.37;;;0.87;;
75311;SDS011;63906;55.686;37.532;2023-02-12T22:35:27;0.22;;;0.22;;
75311;SDS011;63906;55.686;37.532;2023-02-12T22:40:28;3.00;;;1.73;;
75311;SDS011;63906;55.686;37.532;2023-02-12T22:45:28;0.90;;;0.50;;
75311;SDS011;63906;55.686;37.532;2023-02-12T22:50:29;1.10;;;0.63;;
75311;SDS011;63906;55.686;37.532;2023-02-12T22:55:29;2.50;;;1.83;;
75311;SDS011;63906;55.686;37.532;2023-02-12T23:00:30;1.15;;;0.80;;
75311;SDS011;63906;55.686;37.532;2023-02-12T23:05:33;0.90;;;0.60;;
75311;SDS011;63906;55.686;37.532;2023-02-12T23:10:35;0.98;;;0.73;;
75311;SDS011;63906;55.686;37.532;2023-02-12T23:15:36;4.38;;;0.65;;
75311;SDS011;63906;55.686;37.532;2023-02-12T23:20:36;1.08;;;0.63;;
75311;SDS011;63906;55.686;37.532;2023-02-12T23:25:39;1.65;;;0.52;;
75311;SDS011;63906;55.686;37.532;2023-02-12T23:30:40;0.88;;;0.60;;
75311;SDS011;63906;55.686;37.532;2023-02-12T23:35:41;2.70;;;0.70;;
75311;SDS011;63906;55.686;37.532;2023-02-12T23:40:42;0.77;;;0.40;;
75311;SDS011;63906;55.686;37.532;2023-02-12T23:45:43;2.35;;;0.65;;
75311;SDS011;63906;55.686;37.532;2023-02-12T23:50:45;0.43;;;0.32;;
75311;SDS011;63906;55.686;37.532;2023-02-12T23:55:47;0.52;;;0.50;;
